Brevard, North Carolina
Current Conditions -  °F | °C
As of 3:54 AM on Monday 20 Oct 2014 (Local Time) from KAVL Reporting Station
Clear Clear  
Wind Chill: 42°   Ceiling: Unl
Heat Index: 42°   Visibility: 10mi
Dew Point: 40°   Wind: 0mph
Humidity: 92%   Direction: NA
Pressure: 30.13"   Gusts: NA
Location:  35.23°N, 82.73°W
Report Text: KAVL 200754Z AUTO 00000KT 10SM CLR 06/04 A3013 RMK AO2 SLP193 T00560044
Loading
Personal Weather Stations






























Interactive Weather Map
Tropical Storm Tracking
New forecast layout! Learn more

10-Day Weather Forecast

Advertisements
Track Severe Weather on mobile